Newtown, CT

1:22 AM EST on March 06, 2015 (GMT -0500)
Little Brook Ln | Change Station
CLOSE
Current Station
Personal Weather Station
Location: Newtown, CT
Elevation: 489 ft
Nearby Weather Stations

Elev 489 ft 41.38 °N, 73.27 °W | Updated 20 seconds ago

Clear
Clear
11.7 °F
Feels Like 2 °F
N
6.3
Wind Variable Wind from West
Gusts 6.3 mph

Today
High -- | Low -- °F
--% Chance of Precip.
Yesterday
High -- | Low -- °F
Precip. -- in
6:20 AM 5:49 PM
Full, 100% visible
Pressure 30.41 in
Visibility 10.0 miles
Clouds Clear
Windchill 2 °F
Dew Point -1 °F
Humidity 56%
Rainfall in
Snow Depth Not available.
UV 0 out of 12
Pollen .50 out of 12
Air Quality Not available.
Flu Activity Not available.
METAR KDXR 060553Z AUTO 35007G16KT 10SM CLR M11/M20 A3039 RMK AO2 SLP298 T11061200 11067 21106 53024

More Conditions Fewer Conditions

Pressure 30.41 in
Visibility 10.0 miles
Clouds Clear
Windchill 2 °F
Dew Point -1 °F
Humidity 56%
Rainfall in
Snow Depth Not available.
UV 0 out of 12
Pollen .50 out of 12
Air Quality Not available.
Flu Activity Not available.
METAR KDXR 060553Z AUTO 35007G16KT 10SM CLR M11/M20 A3039 RMK AO2 SLP298 T11061200 11067 21106 53024

More Conditions Fewer Conditions

10-Day Weather Forecast

Almanac

Astronomy

Mar. 06, 2015 Rise Set
Actual Time
Civil Twilight
Nautical Twilight
Astronomical Twilight
Moon
Length of Visible Light
Length of Day
Tomorrow will be .
, % of the Moon is Illuminated

Today's Extremes

State Highs State Lows

Community

WunderPhotos

Upload Photos

1,803,195 photos uploaded!

WunderBlogs® & News

Nearby

Air Quality

  Air Quality AQ Index Pollutant
Not available.

Snow Depth

Station Depth Elevation

Earthquake Activity

City Distance Mag. Time & Date
Minimum magnitude displayed is 2.5.

Coastal Water Temperatures

Place Temperature

Nearby Weather Stations